sensor_id;sensor_type;location;lat;lon;timestamp;P1;durP1;ratioP1;P2;durP2;ratioP2
44228;SDS011;29904;51.058;5.378;2023-07-02T00:01:26;12.47;;;5.53;;
44228;SDS011;29904;51.058;5.378;2023-07-02T00:03:52;10.77;;;5.07;;
44228;SDS011;29904;51.058;5.378;2023-07-02T00:06:22;15.00;;;5.65;;
44228;SDS011;29904;51.058;5.378;2023-07-02T00:08:47;13.50;;;6.07;;
44228;SDS011;29904;51.058;5.378;2023-07-02T00:11:15;12.20;;;5.65;;
44228;SDS011;29904;51.058;5.378;2023-07-02T00:13:41;12.18;;;5.60;;
44228;SDS011;29904;51.058;5.378;2023-07-02T00:16:06;16.07;;;5.90;;
44228;SDS011;29904;51.058;5.378;2023-07-02T00:18:32;13.13;;;5.97;;
44228;SDS011;29904;51.058;5.378;2023-07-02T00:20:59;13.00;;;6.10;;
44228;SDS011;29904;51.058;5.378;2023-07-02T00:23:28;15.05;;;6.88;;
44228;SDS011;29904;51.058;5.378;2023-07-02T00:25:54;12.77;;;5.80;;
44228;SDS011;29904;51.058;5.378;2023-07-02T00:28:20;16.70;;;6.30;;
44228;SDS011;29904;51.058;5.378;2023-07-02T00:30:46;13.37;;;6.43;;
44228;SDS011;29904;51.058;5.378;2023-07-02T00:33:11;14.60;;;6.53;;
44228;SDS011;29904;51.058;5.378;2023-07-02T00:35:37;13.57;;;6.95;;
44228;SDS011;29904;51.058;5.378;2023-07-02T00:38:03;14.53;;;6.40;;
44228;SDS011;29904;51.058;5.378;2023-07-02T00:40:29;12.93;;;6.05;;
44228;SDS011;29904;51.058;5.378;2023-07-02T00:42:54;15.00;;;6.70;;
44228;SDS011;29904;51.058;5.378;2023-07-02T00:45:21;17.17;;;6.93;;
44228;SDS011;29904;51.058;5.378;2023-07-02T00:47:47;15.60;;;6.90;;
44228;SDS011;29904;51.058;5.378;2023-07-02T00:50:14;13.73;;;6.50;;
44228;SDS011;29904;51.058;5.378;2023-07-02T00:52:40;14.73;;;6.65;;
44228;SDS011;29904;51.058;5.378;2023-07-02T00:55:06;15.55;;;6.70;;
44228;SDS011;29904;51.058;5.378;2023-07-02T00:57:32;14.50;;;7.18;;
44228;SDS011;29904;51.058;5.378;2023-07-02T00:59:58;17.45;;;7.78;;
44228;SDS011;29904;51.058;5.378;2023-07-02T01:02:27;16.73;;;7.22;;
44228;SDS011;29904;51.058;5.378;2023-07-02T01:04:54;16.20;;;7.60;;
44228;SDS011;29904;51.058;5.378;2023-07-02T01:07:23;16.27;;;8.27;;
44228;SDS011;29904;51.058;5.378;2023-07-02T01:09:49;18.42;;;7.90;;
44228;SDS011;29904;51.058;5.378;2023-07-02T01:12:15;17.60;;;7.97;;
44228;SDS011;29904;51.058;5.378;2023-07-02T01:14:44;15.73;;;7.38;;
44228;SDS011;29904;51.058;5.378;2023-07-02T01:17:17;20.00;;;8.35;;
44228;SDS011;29904;51.058;5.378;2023-07-02T01:19:46;16.58;;;8.10;;
44228;SDS011;29904;51.058;5.378;2023-07-02T01:22:21;14.85;;;8.23;;
44228;SDS011;29904;51.058;5.378;2023-07-02T01:24:51;20.75;;;9.23;;
44228;SDS011;29904;51.058;5.378;2023-07-02T01:27:17;18.27;;;8.45;;
44228;SDS011;29904;51.058;5.378;2023-07-02T01:29:43;19.23;;;8.40;;
44228;SDS011;29904;51.058;5.378;2023-07-02T01:32:12;18.45;;;8.73;;
44228;SDS011;29904;51.058;5.378;2023-07-02T01:34:41;16.67;;;8.50;;
44228;SDS011;29904;51.058;5.378;2023-07-02T01:37:09;19.15;;;8.95;;
44228;SDS011;29904;51.058;5.378;2023-07-02T01:39:36;18.58;;;9.18;;
44228;SDS011;29904;51.058;5.378;2023-07-02T01:42:09;19.77;;;9.52;;
44228;SDS011;29904;51.058;5.378;2023-07-02T01:44:42;19.40;;;9.48;;
44228;SDS011;29904;51.058;5.378;2023-07-02T01:47:08;21.40;;;9.45;;
44228;SDS011;29904;51.058;5.378;2023-07-02T01:49:35;20.92;;;9.75;;
44228;SDS011;29904;51.058;5.378;2023-07-02T01:52:04;20.85;;;9.70;;
44228;SDS011;29904;51.058;5.378;2023-07-02T01:54:30;20.40;;;9.25;;
44228;SDS011;29904;51.058;5.378;2023-07-02T01:56:57;18.60;;;9.00;;
44228;SDS011;29904;51.058;5.378;2023-07-02T01:59:25;22.90;;;9.52;;
44228;SDS011;29904;51.058;5.378;2023-07-02T02:01:51;19.27;;;10.05;;
44228;SDS011;29904;51.058;5.378;2023-07-02T02:04:17;20.00;;;10.27;;
44228;SDS011;29904;51.058;5.378;2023-07-02T02:06:43;19.70;;;10.38;;
44228;SDS011;29904;51.058;5.378;2023-07-02T02:09:09;19.50;;;9.60;;
44228;SDS011;29904;51.058;5.378;2023-07-02T02:11:38;24.30;;;10.60;;
44228;SDS011;29904;51.058;5.378;2023-07-02T02:14:07;19.85;;;9.95;;
44228;SDS011;29904;51.058;5.378;2023-07-02T02:16:33;20.60;;;9.65;;
44228;SDS011;29904;51.058;5.378;2023-07-02T02:18:59;20.17;;;10.03;;
44228;SDS011;29904;51.058;5.378;2023-07-02T02:21:28;21.63;;;10.77;;
44228;SDS011;29904;51.058;5.378;2023-07-02T02:23:54;20.40;;;10.15;;
44228;SDS011;29904;51.058;5.378;2023-07-02T02:26:20;23.70;;;10.68;;
44228;SDS011;29904;51.058;5.378;2023-07-02T02:28:49;21.10;;;10.77;;
44228;SDS011;29904;51.058;5.378;2023-07-02T02:31:15;23.10;;;10.55;;
44228;SDS011;29904;51.058;5.378;2023-07-02T02:33:41;24.30;;;11.43;;
44228;SDS011;29904;51.058;5.378;2023-07-02T02:36:09;23.48;;;11.43;;
44228;SDS011;29904;51.058;5.378;2023-07-02T02:38:34;20.37;;;10.00;;
44228;SDS011;29904;51.058;5.378;2023-07-02T02:41:02;22.02;;;10.93;;
44228;SDS011;29904;51.058;5.378;2023-07-02T02:43:28;23.73;;;10.60;;
44228;SDS011;29904;51.058;5.378;2023-07-02T02:45:54;25.90;;;11.70;;
44228;SDS011;29904;51.058;5.378;2023-07-02T02:48:22;21.48;;;10.50;;
44228;SDS011;29904;51.058;5.378;2023-07-02T02:50:48;22.15;;;11.23;;
44228;SDS011;29904;51.058;5.378;2023-07-02T02:53:14;25.13;;;11.63;;
44228;SDS011;29904;51.058;5.378;2023-07-02T02:55:39;24.97;;;11.40;;
44228;SDS011;29904;51.058;5.378;2023-07-02T02:58:05;20.37;;;10.53;;
44228;SDS011;29904;51.058;5.378;2023-07-02T03:00:31;23.13;;;11.50;;
44228;SDS011;29904;51.058;5.378;2023-07-02T03:02:59;22.70;;;11.07;;
44228;SDS011;29904;51.058;5.378;2023-07-02T03:05:25;23.60;;;11.23;;
44228;SDS011;29904;51.058;5.378;2023-07-02T03:07:51;23.88;;;12.30;;
44228;SDS011;29904;51.058;5.378;2023-07-02T03:10:19;22.77;;;11.65;;
44228;SDS011;29904;51.058;5.378;2023-07-02T03:12:45;21.70;;;11.77;;
44228;SDS011;29904;51.058;5.378;2023-07-02T03:15:12;23.20;;;11.55;;
44228;SDS011;29904;51.058;5.378;2023-07-02T03:17:40;24.05;;;11.00;;
44228;SDS011;29904;51.058;5.378;2023-07-02T03:20:05;23.42;;;11.30;;
44228;SDS011;29904;51.058;5.378;2023-07-02T03:22:34;24.38;;;11.43;;
44228;SDS011;29904;51.058;5.378;2023-07-02T03:25:04;21.98;;;11.13;;
44228;SDS011;29904;51.058;5.378;2023-07-02T03:27:30;21.60;;;11.20;;
44228;SDS011;29904;51.058;5.378;2023-07-02T03:29:56;23.47;;;11.73;;
44228;SDS011;29904;51.058;5.378;2023-07-02T03:32:22;25.43;;;11.50;;
44228;SDS011;29904;51.058;5.378;2023-07-02T03:34:51;24.77;;;12.13;;
44228;SDS011;29904;51.058;5.378;2023-07-02T03:37:17;25.03;;;11.93;;
44228;SDS011;29904;51.058;5.378;2023-07-02T03:39:43;24.07;;;12.10;;
44228;SDS011;29904;51.058;5.378;2023-07-02T03:42:09;26.47;;;11.80;;
44228;SDS011;29904;51.058;5.378;2023-07-02T03:44:35;23.80;;;11.27;;
44228;SDS011;29904;51.058;5.378;2023-07-02T03:47:00;22.83;;;11.60;;
44228;SDS011;29904;51.058;5.378;2023-07-02T03:49:26;25.57;;;11.43;;
44228;SDS011;29904;51.058;5.378;2023-07-02T03:51:52;24.53;;;12.07;;
44228;SDS011;29904;51.058;5.378;2023-07-02T03:54:18;28.40;;;12.50;;
44228;SDS011;29904;51.058;5.378;2023-07-02T03:56:44;24.33;;;12.15;;
44228;SDS011;29904;51.058;5.378;2023-07-02T03:59:09;25.37;;;12.33;;
44228;SDS011;29904;51.058;5.378;2023-07-02T04:01:35;24.15;;;11.77;;
44228;SDS011;29904;51.058;5.378;2023-07-02T04:04:03;25.13;;;11.75;;
44228;SDS011;29904;51.058;5.378;2023-07-02T04:06:28;24.92;;;11.25;;
44228;SDS011;29904;51.058;5.378;2023-07-02T04:08:54;27.57;;;12.20;;
44228;SDS011;29904;51.058;5.378;2023-07-02T04:11:20;24.40;;;11.65;;
44228;SDS011;29904;51.058;5.378;2023-07-02T04:13:47;26.60;;;13.20;;
44228;SDS011;29904;51.058;5.378;2023-07-02T04:16:13;26.17;;;12.17;;
44228;SDS011;29904;51.058;5.378;2023-07-02T04:18:39;25.90;;;12.45;;
44228;SDS011;29904;51.058;5.378;2023-07-02T04:21:05;23.75;;;12.38;;
44228;SDS011;29904;51.058;5.378;2023-07-02T04:23:30;25.93;;;12.50;;
44228;SDS011;29904;51.058;5.378;2023-07-02T04:25:56;26.92;;;12.52;;
44228;SDS011;29904;51.058;5.378;2023-07-02T04:28:24;24.50;;;12.30;;
44228;SDS011;29904;51.058;5.378;2023-07-02T04:30:50;25.30;;;12.77;;
44228;SDS011;29904;51.058;5.378;2023-07-02T04:33:17;30.50;;;13.47;;
44228;SDS011;29904;51.058;5.378;2023-07-02T04:35:45;26.98;;;13.15;;
44228;SDS011;29904;51.058;5.378;2023-07-02T04:38:11;23.17;;;12.10;;
44228;SDS011;29904;51.058;5.378;2023-07-02T04:40:37;24.85;;;11.45;;
44228;SDS011;29904;51.058;5.378;2023-07-02T04:43:06;28.25;;;13.20;;
44228;SDS011;29904;51.058;5.378;2023-07-02T04:45:32;27.38;;;12.50;;
44228;SDS011;29904;51.058;5.378;2023-07-02T04:48:01;25.50;;;12.70;;
44228;SDS011;29904;51.058;5.378;2023-07-02T04:50:27;27.30;;;13.20;;
44228;SDS011;29904;51.058;5.378;2023-07-02T04:52:53;28.52;;;12.50;;
44228;SDS011;29904;51.058;5.378;2023-07-02T04:55:20;26.63;;;13.48;;
44228;SDS011;29904;51.058;5.378;2023-07-02T04:57:48;25.52;;;12.77;;
44228;SDS011;29904;51.058;5.378;2023-07-02T05:00:14;26.20;;;13.07;;
44228;SDS011;29904;51.058;5.378;2023-07-02T05:02:40;25.95;;;12.73;;
44228;SDS011;29904;51.058;5.378;2023-07-02T05:05:06;28.47;;;13.13;;
44228;SDS011;29904;51.058;5.378;2023-07-02T05:07:32;25.77;;;12.65;;
44228;SDS011;29904;51.058;5.378;2023-07-02T05:09:58;29.70;;;13.40;;
44228;SDS011;29904;51.058;5.378;2023-07-02T05:12:24;29.08;;;13.20;;
44228;SDS011;29904;51.058;5.378;2023-07-02T05:14:52;29.02;;;13.52;;
44228;SDS011;29904;51.058;5.378;2023-07-02T05:17:17;22.55;;;12.75;;
44228;SDS011;29904;51.058;5.378;2023-07-02T05:19:43;28.27;;;13.47;;
44228;SDS011;29904;51.058;5.378;2023-07-02T05:22:11;24.77;;;12.48;;
44228;SDS011;29904;51.058;5.378;2023-07-02T05:24:36;27.23;;;13.02;;
44228;SDS011;29904;51.058;5.378;2023-07-02T05:27:02;27.20;;;12.97;;
44228;SDS011;29904;51.058;5.378;2023-07-02T05:29:31;29.52;;;14.13;;
44228;SDS011;29904;51.058;5.378;2023-07-02T05:31:57;32.37;;;14.00;;
44228;SDS011;29904;51.058;5.378;2023-07-02T05:34:23;28.90;;;13.40;;
44228;SDS011;29904;51.058;5.378;2023-07-02T05:36:48;27.52;;;13.00;;
44228;SDS011;29904;51.058;5.378;2023-07-02T05:39:14;31.17;;;13.47;;
44228;SDS011;29904;51.058;5.378;2023-07-02T05:41:40;29.33;;;14.87;;
44228;SDS011;29904;51.058;5.378;2023-07-02T05:44:06;30.48;;;14.32;;
44228;SDS011;29904;51.058;5.378;2023-07-02T05:46:31;28.80;;;13.47;;
44228;SDS011;29904;51.058;5.378;2023-07-02T05:48:57;30.55;;;14.32;;
44228;SDS011;29904;51.058;5.378;2023-07-02T05:51:25;29.85;;;14.35;;
44228;SDS011;29904;51.058;5.378;2023-07-02T05:53:51;27.42;;;14.43;;
44228;SDS011;29904;51.058;5.378;2023-07-02T05:56:17;32.15;;;14.35;;
44228;SDS011;29904;51.058;5.378;2023-07-02T05:58:43;36.17;;;16.08;;
44228;SDS011;29904;51.058;5.378;2023-07-02T06:01:11;34.60;;;15.82;;
44228;SDS011;29904;51.058;5.378;2023-07-02T06:03:39;31.80;;;14.23;;
44228;SDS011;29904;51.058;5.378;2023-07-02T06:06:05;31.73;;;14.65;;
44228;SDS011;29904;51.058;5.378;2023-07-02T06:08:33;31.97;;;14.07;;
44228;SDS011;29904;51.058;5.378;2023-07-02T06:10:59;34.90;;;14.63;;
44228;SDS011;29904;51.058;5.378;2023-07-02T06:13:25;28.52;;;14.07;;
44228;SDS011;29904;51.058;5.378;2023-07-02T06:15:51;37.92;;;16.30;;
44228;SDS011;29904;51.058;5.378;2023-07-02T06:18:16;32.50;;;14.50;;
44228;SDS011;29904;51.058;5.378;2023-07-02T06:20:42;33.40;;;14.53;;
44228;SDS011;29904;51.058;5.378;2023-07-02T06:23:08;27.50;;;13.80;;
44228;SDS011;29904;51.058;5.378;2023-07-02T06:25:36;31.00;;;14.65;;
44228;SDS011;29904;51.058;5.378;2023-07-02T06:28:01;30.10;;;14.20;;
44228;SDS011;29904;51.058;5.378;2023-07-02T06:30:27;30.67;;;14.32;;
44228;SDS011;29904;51.058;5.378;2023-07-02T06:32:53;29.80;;;14.17;;
44228;SDS011;29904;51.058;5.378;2023-07-02T06:35:21;29.85;;;14.00;;
44228;SDS011;29904;51.058;5.378;2023-07-02T06:37:47;33.65;;;14.00;;
44228;SDS011;29904;51.058;5.378;2023-07-02T06:40:13;32.42;;;14.27;;
44228;SDS011;29904;51.058;5.378;2023-07-02T06:42:41;32.70;;;13.50;;
44228;SDS011;29904;51.058;5.378;2023-07-02T06:45:06;28.03;;;13.40;;
44228;SDS011;29904;51.058;5.378;2023-07-02T06:47:33;29.67;;;13.37;;
44228;SDS011;29904;51.058;5.378;2023-07-02T06:49:58;30.73;;;14.05;;
44228;SDS011;29904;51.058;5.378;2023-07-02T06:52:24;31.50;;;14.25;;
44228;SDS011;29904;51.058;5.378;2023-07-02T06:54:50;28.85;;;13.15;;
44228;SDS011;29904;51.058;5.378;2023-07-02T06:57:16;24.63;;;12.73;;
44228;SDS011;29904;51.058;5.378;2023-07-02T06:59:41;28.48;;;12.88;;
44228;SDS011;29904;51.058;5.378;2023-07-02T07:02:07;28.83;;;12.53;;
44228;SDS011;29904;51.058;5.378;2023-07-02T07:04:37;25.10;;;11.40;;
44228;SDS011;29904;51.058;5.378;2023-07-02T07:07:03;27.15;;;12.65;;
44228;SDS011;29904;51.058;5.378;2023-07-02T07:09:29;30.77;;;13.20;;
44228;SDS011;29904;51.058;5.378;2023-07-02T07:11:55;29.05;;;12.98;;
44228;SDS011;29904;51.058;5.378;2023-07-02T07:14:21;29.77;;;12.30;;
44228;SDS011;29904;51.058;5.378;2023-07-02T07:16:47;27.00;;;12.40;;
44228;SDS011;29904;51.058;5.378;2023-07-02T07:19:12;30.30;;;12.50;;
44228;SDS011;29904;51.058;5.378;2023-07-02T07:21:38;26.40;;;11.57;;
44228;SDS011;29904;51.058;5.378;2023-07-02T07:24:05;27.05;;;11.60;;
44228;SDS011;29904;51.058;5.378;2023-07-02T07:26:33;24.75;;;12.27;;
44228;SDS011;29904;51.058;5.378;2023-07-02T07:28:58;27.43;;;11.87;;
44228;SDS011;29904;51.058;5.378;2023-07-02T07:31:24;27.00;;;12.40;;
44228;SDS011;29904;51.058;5.378;2023-07-02T07:33:50;27.27;;;11.95;;
44228;SDS011;29904;51.058;5.378;2023-07-02T07:36:16;27.08;;;12.10;;
44228;SDS011;29904;51.058;5.378;2023-07-02T07:38:45;26.75;;;12.50;;
44228;SDS011;29904;51.058;5.378;2023-07-02T07:41:11;28.35;;;12.30;;
44228;SDS011;29904;51.058;5.378;2023-07-02T07:43:36;28.10;;;12.60;;
44228;SDS011;29904;51.058;5.378;2023-07-02T07:46:02;24.85;;;11.43;;
44228;SDS011;29904;51.058;5.378;2023-07-02T07:48:32;31.27;;;13.20;;
44228;SDS011;29904;51.058;5.378;2023-07-02T07:50:58;24.83;;;12.25;;
44228;SDS011;29904;51.058;5.378;2023-07-02T07:53:25;29.83;;;12.35;;
44228;SDS011;29904;51.058;5.378;2023-07-02T07:55:51;24.50;;;11.02;;
44228;SDS011;29904;51.058;5.378;2023-07-02T07:58:17;23.40;;;10.20;;
44228;SDS011;29904;51.058;5.378;2023-07-02T08:00:45;23.13;;;9.68;;
44228;SDS011;29904;51.058;5.378;2023-07-02T08:03:10;23.33;;;9.30;;
44228;SDS011;29904;51.058;5.378;2023-07-02T08:05:36;20.70;;;9.00;;
44228;SDS011;29904;51.058;5.378;2023-07-02T08:08:04;20.92;;;9.75;;
44228;SDS011;29904;51.058;5.378;2023-07-02T08:10:29;21.50;;;9.43;;
44228;SDS011;29904;51.058;5.378;2023-07-02T08:12:55;22.60;;;10.43;;
44228;SDS011;29904;51.058;5.378;2023-07-02T08:15:22;24.88;;;10.57;;
44228;SDS011;29904;51.058;5.378;2023-07-02T08:17:48;24.88;;;10.90;;
44228;SDS011;29904;51.058;5.378;2023-07-02T08:20:14;21.38;;;9.88;;
44228;SDS011;29904;51.058;5.378;2023-07-02T08:22:42;23.48;;;10.40;;
44228;SDS011;29904;51.058;5.378;2023-07-02T08:25:08;20.80;;;9.60;;
44228;SDS011;29904;51.058;5.378;2023-07-02T08:27:34;24.42;;;10.25;;
44228;SDS011;29904;51.058;5.378;2023-07-02T08:30:00;23.27;;;10.03;;
44228;SDS011;29904;51.058;5.378;2023-07-02T08:32:25;19.17;;;9.55;;
44228;SDS011;29904;51.058;5.378;2023-07-02T08:34:51;21.63;;;9.97;;
44228;SDS011;29904;51.058;5.378;2023-07-02T08:37:20;23.92;;;10.40;;
44228;SDS011;29904;51.058;5.378;2023-07-02T08:39:46;21.40;;;10.18;;
44228;SDS011;29904;51.058;5.378;2023-07-02T08:42:13;24.55;;;10.70;;
44228;SDS011;29904;51.058;5.378;2023-07-02T08:44:39;23.73;;;10.10;;
44228;SDS011;29904;51.058;5.378;2023-07-02T08:47:06;23.07;;;10.57;;
44228;SDS011;29904;51.058;5.378;2023-07-02T08:49:32;25.17;;;10.77;;
44228;SDS011;29904;51.058;5.378;2023-07-02T08:51:59;22.50;;;10.45;;
44228;SDS011;29904;51.058;5.378;2023-07-02T08:54:25;19.70;;;9.57;;
44228;SDS011;29904;51.058;5.378;2023-07-02T08:56:51;20.50;;;9.15;;
44228;SDS011;29904;51.058;5.378;2023-07-02T08:59:17;21.97;;;9.73;;
44228;SDS011;29904;51.058;5.378;2023-07-02T09:01:49;19.00;;;9.25;;
44228;SDS011;29904;51.058;5.378;2023-07-02T09:04:20;18.73;;;9.00;;
44228;SDS011;29904;51.058;5.378;2023-07-02T09:06:49;22.60;;;9.75;;
44228;SDS011;29904;51.058;5.378;2023-07-02T09:09:16;17.98;;;8.30;;
44228;SDS011;29904;51.058;5.378;2023-07-02T09:11:49;20.55;;;8.82;;
44228;SDS011;29904;51.058;5.378;2023-07-02T09:14:28;17.77;;;7.93;;
44228;SDS011;29904;51.058;5.378;2023-07-02T09:17:02;18.02;;;8.15;;
44228;SDS011;29904;51.058;5.378;2023-07-02T09:19:34;16.17;;;7.22;;
44228;SDS011;29904;51.058;5.378;2023-07-02T09:22:00;15.43;;;7.05;;
44228;SDS011;29904;51.058;5.378;2023-07-02T09:24:31;17.08;;;6.70;;
44228;SDS011;29904;51.058;5.378;2023-07-02T09:26:58;15.43;;;6.55;;
44228;SDS011;29904;51.058;5.378;2023-07-02T09:29:25;13.48;;;6.03;;
44228;SDS011;29904;51.058;5.378;2023-07-02T09:31:56;12.60;;;5.70;;
44228;SDS011;29904;51.058;5.378;2023-07-02T09:34:33;12.52;;;5.82;;
44228;SDS011;29904;51.058;5.378;2023-07-02T09:37:00;13.07;;;5.57;;
44228;SDS011;29904;51.058;5.378;2023-07-02T09:39:28;12.82;;;5.88;;
44228;SDS011;29904;51.058;5.378;2023-07-02T09:41:56;12.65;;;5.70;;
44228;SDS011;29904;51.058;5.378;2023-07-02T09:44:29;12.18;;;5.70;;
44228;SDS011;29904;51.058;5.378;2023-07-02T09:47:07;11.90;;;5.97;;
44228;SDS011;29904;51.058;5.378;2023-07-02T09:52:04;11.30;;;5.22;;
44228;SDS011;29904;51.058;5.378;2023-07-02T09:54:31;11.13;;;5.03;;
44228;SDS011;29904;51.058;5.378;2023-07-02T09:56:57;13.07;;;5.63;;
44228;SDS011;29904;51.058;5.378;2023-07-02T09:59:24;12.55;;;5.50;;
44228;SDS011;29904;51.058;5.378;2023-07-02T10:01:50;12.02;;;5.40;;
44228;SDS011;29904;51.058;5.378;2023-07-02T10:04:17;16.58;;;6.10;;
44228;SDS011;29904;51.058;5.378;2023-07-02T10:06:49;12.80;;;5.70;;
44228;SDS011;29904;51.058;5.378;2023-07-02T10:09:17;11.25;;;4.95;;
44228;SDS011;29904;51.058;5.378;2023-07-02T10:11:43;15.75;;;6.15;;
44228;SDS011;29904;51.058;5.378;2023-07-02T10:14:09;12.77;;;5.47;;
44228;SDS011;29904;51.058;5.378;2023-07-02T10:16:48;15.37;;;5.40;;
44228;SDS011;29904;51.058;5.378;2023-07-02T10:19:16;11.70;;;5.18;;
44228;SDS011;29904;51.058;5.378;2023-07-02T10:21:42;12.30;;;5.40;;
44228;SDS011;29904;51.058;5.378;2023-07-02T10:24:15;11.63;;;5.35;;
44228;SDS011;29904;51.058;5.378;2023-07-02T10:26:59;12.80;;;5.43;;
44228;SDS011;29904;51.058;5.378;2023-07-02T10:29:27;12.23;;;5.65;;
44228;SDS011;29904;51.058;5.378;2023-07-02T10:31:55;13.48;;;5.47;;
44228;SDS011;29904;51.058;5.378;2023-07-02T10:34:33;13.55;;;5.05;;
44228;SDS011;29904;51.058;5.378;2023-07-02T10:37:02;10.10;;;4.97;;
44228;SDS011;29904;51.058;5.378;2023-07-02T10:39:29;13.30;;;5.60;;
44228;SDS011;29904;51.058;5.378;2023-07-02T10:42:06;13.68;;;5.22;;
44228;SDS011;29904;51.058;5.378;2023-07-02T10:44:46;12.05;;;4.97;;
44228;SDS011;29904;51.058;5.378;2023-07-02T10:47:17;12.67;;;5.23;;
44228;SDS011;29904;51.058;5.378;2023-07-02T10:49:45;13.23;;;4.75;;
44228;SDS011;29904;51.058;5.378;2023-07-02T10:52:12;10.38;;;4.75;;
44228;SDS011;29904;51.058;5.378;2023-07-02T10:54:46;10.40;;;4.80;;
44228;SDS011;29904;51.058;5.378;2023-07-02T10:57:14;10.68;;;5.10;;
44228;SDS011;29904;51.058;5.378;2023-07-02T10:59:46;11.02;;;5.63;;
44228;SDS011;29904;51.058;5.378;2023-07-02T11:02:14;14.73;;;6.22;;
44228;SDS011;29904;51.058;5.378;2023-07-02T11:04:42;12.18;;;5.55;;
44228;SDS011;29904;51.058;5.378;2023-07-02T11:07:10;13.27;;;5.97;;
44228;SDS011;29904;51.058;5.378;2023-07-02T11:09:49;14.05;;;5.65;;
44228;SDS011;29904;51.058;5.378;2023-07-02T11:12:18;12.20;;;5.20;;
44228;SDS011;29904;51.058;5.378;2023-07-02T11:15:12;15.13;;;6.13;;
44228;SDS011;29904;51.058;5.378;2023-07-02T11:17:41;15.25;;;6.55;;
44228;SDS011;29904;51.058;5.378;2023-07-02T11:20:08;13.02;;;6.35;;
44228;SDS011;29904;51.058;5.378;2023-07-02T11:22:37;12.02;;;5.35;;
44228;SDS011;29904;51.058;5.378;2023-07-02T11:25:17;15.38;;;6.25;;
44228;SDS011;29904;51.058;5.378;2023-07-02T11:27:46;15.90;;;6.10;;
44228;SDS011;29904;51.058;5.378;2023-07-02T11:30:14;16.17;;;6.68;;
44228;SDS011;29904;51.058;5.378;2023-07-02T11:32:52;17.33;;;6.90;;
44228;SDS011;29904;51.058;5.378;2023-07-02T11:35:21;15.25;;;6.22;;
44228;SDS011;29904;51.058;5.378;2023-07-02T11:37:49;17.13;;;7.07;;
44228;SDS011;29904;51.058;5.378;2023-07-02T11:40:18;12.50;;;6.47;;
44228;SDS011;29904;51.058;5.378;2023-07-02T11:42:47;14.43;;;6.80;;
44228;SDS011;29904;51.058;5.378;2023-07-02T11:45:15;16.00;;;6.93;;
44228;SDS011;29904;51.058;5.378;2023-07-02T11:47:42;14.23;;;6.95;;
44228;SDS011;29904;51.058;5.378;2023-07-02T11:50:12;14.90;;;6.78;;
44228;SDS011;29904;51.058;5.378;2023-07-02T11:52:39;15.13;;;6.70;;
44228;SDS011;29904;51.058;5.378;2023-07-02T11:55:07;13.77;;;6.22;;
44228;SDS011;29904;51.058;5.378;2023-07-02T11:57:39;12.57;;;6.63;;
44228;SDS011;29904;51.058;5.378;2023-07-02T12:00:08;13.35;;;6.22;;
44228;SDS011;29904;51.058;5.378;2023-07-02T12:02:36;14.63;;;6.82;;
44228;SDS011;29904;51.058;5.378;2023-07-02T12:05:03;15.97;;;7.00;;
44228;SDS011;29904;51.058;5.378;2023-07-02T12:07:30;15.47;;;6.37;;
44228;SDS011;29904;51.058;5.378;2023-07-02T12:09:58;15.35;;;6.88;;
44228;SDS011;29904;51.058;5.378;2023-07-02T12:12:44;15.70;;;6.55;;
44228;SDS011;29904;51.058;5.378;2023-07-02T12:15:12;13.40;;;6.57;;
44228;SDS011;29904;51.058;5.378;2023-07-02T12:17:39;17.13;;;6.82;;
44228;SDS011;29904;51.058;5.378;2023-07-02T12:20:05;15.73;;;6.82;;
44228;SDS011;29904;51.058;5.378;2023-07-02T12:22:32;14.33;;;7.10;;
44228;SDS011;29904;51.058;5.378;2023-07-02T12:24:59;16.00;;;6.68;;
44228;SDS011;29904;51.058;5.378;2023-07-02T12:27:26;15.70;;;6.85;;
44228;SDS011;29904;51.058;5.378;2023-07-02T12:29:53;15.63;;;7.22;;
44228;SDS011;29904;51.058;5.378;2023-07-02T12:32:20;16.48;;;7.70;;
44228;SDS011;29904;51.058;5.378;2023-07-02T12:34:47;16.30;;;6.88;;
44228;SDS011;29904;51.058;5.378;2023-07-02T12:37:14;16.85;;;7.38;;
44228;SDS011;29904;51.058;5.378;2023-07-02T12:39:44;14.18;;;6.88;;
44228;SDS011;29904;51.058;5.378;2023-07-02T12:42:11;14.82;;;6.68;;
44228;SDS011;29904;51.058;5.378;2023-07-02T12:44:38;17.48;;;7.20;;
44228;SDS011;29904;51.058;5.378;2023-07-02T12:47:05;15.32;;;7.13;;
44228;SDS011;29904;51.058;5.378;2023-07-02T12:49:35;16.20;;;7.07;;
44228;SDS011;29904;51.058;5.378;2023-07-02T12:52:01;13.35;;;6.65;;
44228;SDS011;29904;51.058;5.378;2023-07-02T12:54:29;16.42;;;7.18;;
44228;SDS011;29904;51.058;5.378;2023-07-02T12:56:58;14.23;;;6.90;;
44228;SDS011;29904;51.058;5.378;2023-07-02T12:59:27;14.55;;;6.35;;
44228;SDS011;29904;51.058;5.378;2023-07-02T13:01:56;15.40;;;6.80;;
44228;SDS011;29904;51.058;5.378;2023-07-02T13:04:24;15.13;;;6.43;;
44228;SDS011;29904;51.058;5.378;2023-07-02T13:06:54;13.75;;;6.65;;
44228;SDS011;29904;51.058;5.378;2023-07-02T13:09:21;16.38;;;6.55;;
44228;SDS011;29904;51.058;5.378;2023-07-02T13:11:48;15.10;;;6.70;;
44228;SDS011;29904;51.058;5.378;2023-07-02T13:14:15;14.75;;;6.57;;
44228;SDS011;29904;51.058;5.378;2023-07-02T13:16:43;12.73;;;6.18;;
44228;SDS011;29904;51.058;5.378;2023-07-02T13:19:10;14.60;;;6.57;;
44228;SDS011;29904;51.058;5.378;2023-07-02T13:21:38;14.10;;;6.07;;
44228;SDS011;29904;51.058;5.378;2023-07-02T13:24:05;15.30;;;6.65;;
44228;SDS011;29904;51.058;5.378;2023-07-02T13:26:31;14.77;;;6.90;;
44228;SDS011;29904;51.058;5.378;2023-07-02T13:28:59;15.90;;;6.53;;
44228;SDS011;29904;51.058;5.378;2023-07-02T13:31:26;16.88;;;6.35;;
44228;SDS011;29904;51.058;5.378;2023-07-02T13:33:54;15.93;;;6.80;;
44228;SDS011;29904;51.058;5.378;2023-07-02T13:36:21;15.93;;;6.83;;
44228;SDS011;29904;51.058;5.378;2023-07-02T13:38:48;14.52;;;6.30;;
44228;SDS011;29904;51.058;5.378;2023-07-02T13:41:15;13.50;;;6.63;;
44228;SDS011;29904;51.058;5.378;2023-07-02T13:43:42;14.82;;;6.60;;
44228;SDS011;29904;51.058;5.378;2023-07-02T13:46:09;13.57;;;6.55;;
44228;SDS011;29904;51.058;5.378;2023-07-02T13:48:39;13.73;;;6.15;;
44228;SDS011;29904;51.058;5.378;2023-07-02T13:51:08;14.52;;;6.10;;
44228;SDS011;29904;51.058;5.378;2023-07-02T13:53:36;11.20;;;5.32;;
44228;SDS011;29904;51.058;5.378;2023-07-02T13:56:03;11.98;;;5.50;;
44228;SDS011;29904;51.058;5.378;2023-07-02T14:01:24;14.50;;;5.90;;
44228;SDS011;29904;51.058;5.378;2023-07-02T14:03:53;14.65;;;6.13;;
44228;SDS011;29904;51.058;5.378;2023-07-02T14:06:20;14.00;;;6.43;;
44228;SDS011;29904;51.058;5.378;2023-07-02T14:08:47;15.20;;;6.03;;
44228;SDS011;29904;51.058;5.378;2023-07-02T14:11:14;13.40;;;6.13;;
44228;SDS011;29904;51.058;5.378;2023-07-02T14:13:45;13.43;;;6.30;;
44228;SDS011;29904;51.058;5.378;2023-07-02T14:16:12;14.18;;;6.20;;
44228;SDS011;29904;51.058;5.378;2023-07-02T14:18:42;11.80;;;5.97;;
44228;SDS011;29904;51.058;5.378;2023-07-02T14:21:12;11.60;;;5.90;;
44228;SDS011;29904;51.058;5.378;2023-07-02T14:23:39;14.73;;;6.10;;
44228;SDS011;29904;51.058;5.378;2023-07-02T14:26:06;10.63;;;5.30;;
44228;SDS011;29904;51.058;5.378;2023-07-02T14:28:34;14.02;;;6.07;;
44228;SDS011;29904;51.058;5.378;2023-07-02T14:31:02;12.77;;;5.70;;
44228;SDS011;29904;51.058;5.378;2023-07-02T14:33:31;11.60;;;5.50;;
44228;SDS011;29904;51.058;5.378;2023-07-02T14:35:59;12.43;;;5.70;;